Time;durP1;ratioP1;P1;durP2;ratioP2;P2;SDS_P1;SDS_P2;PMS_P1;PMS_P2;Temp;Humidity;BMP_temperature;BMP_pressure;BME280_temperature;BME280_humidity;BME280_pressure;Samples;Min_cycle;Max_cycle;Signal;HPM_P1;HPM_P2
2022/03/21 00:01:23;;;;;;;19.38;10.05;;;;;;;-2.56;51.61;94717.31;5011971;28;20054;-84
2022/03/21 00:03:50;;;;;;;16.67;9.27;;;;;;;-2.55;52.36;94721.44;5011612;28;20502;-83
2022/03/21 00:06:17;;;;;;;20.27;10.50;;;;;;;-2.55;52.31;94723.97;5011729;28;20411;-84
2022/03/21 00:08:44;;;;;;;19.00;10.40;;;;;;;-2.55;52.75;94706.34;5011679;28;20049;-82
2022/03/21 00:11:12;;;;;;;39.53;13.95;;;;;;;-2.42;52.33;94724.03;5012108;28;20045;-84
2022/03/21 00:13:40;;;;;;;40.55;13.32;;;;;;;-2.40;53.28;94709.69;5011204;28;20486;-83
2022/03/21 00:16:07;;;;;;;40.08;13.15;;;;;;;-2.45;53.15;94699.09;5019058;28;20049;-82
2022/03/21 00:18:36;;;;;;;35.45;14.82;;;;;;;-2.45;53.42;94704.13;5019160;28;20446;-84
2022/03/21 00:21:03;;;;;;;30.40;12.52;;;;;;;-2.46;53.33;94689.94;5011470;28;20421;-84
2022/03/21 00:23:31;;;;;;;25.13;10.95;;;;;;;-2.55;53.06;94688.75;5010766;28;20446;-84
2022/03/21 00:25:57;;;;;;;22.55;9.90;;;;;;;-3.00;54.20;94691.41;5007868;28;20037;-84
2022/03/21 00:28:24;;;;;;;24.27;11.80;;;;;;;-2.74;54.18;94702.44;5010582;28;20986;-83
2022/03/21 00:30:52;;;;;;;30.05;11.65;;;;;;;-2.76;53.80;94689.16;5010930;28;20050;-84
2022/03/21 00:33:19;;;;;;;30.42;11.38;;;;;;;-2.70;54.21;94688.78;5008282;28;20121;-83
2022/03/21 00:35:50;;;;;;;27.98;10.63;;;;;;;-2.63;53.90;94694.25;5010105;28;20041;-84
2022/03/21 00:38:18;;;;;;;36.13;12.25;;;;;;;-2.72;53.91;94700.63;5010544;28;20050;-84
2022/03/21 00:40:46;;;;;;;22.65;10.32;;;;;;;-2.93;54.34;94696.88;5010263;28;20052;-84
2022/03/21 00:43:15;;;;;;;26.88;10.95;;;;;;;-2.96;54.13;94692.84;5010807;28;20658;-84
2022/03/21 00:45:41;;;;;;;19.23;9.00;;;;;;;-3.01;54.07;94692.31;5010528;28;20636;-84
2022/03/21 00:48:08;;;;;;;22.60;9.40;;;;;;;-3.10;54.35;94688.63;5010689;28;20046;-85
2022/03/21 00:50:35;;;;;;;20.85;9.85;;;;;;;-3.15;55.07;94693.91;5010278;28;20046;-85
2022/03/21 00:53:04;;;;;;;19.73;9.68;;;;;;;-3.49;55.03;94664.00;5010422;28;20153;-84
2022/03/21 00:55:31;;;;;;;17.25;8.95;;;;;;;-3.25;55.24;94665.16;5010235;28;20050;-85
2022/03/21 00:57:59;;;;;;;15.63;9.38;;;;;;;-3.36;55.62;94668.31;5010518;28;20045;-85
2022/03/21 01:00:28;;;;;;;19.02;10.07;;;;;;;-3.28;54.89;94687.97;5010172;28;20057;-85
2022/03/21 01:02:56;;;;;;;18.98;9.75;;;;;;;-3.33;55.12;94669.84;5010517;28;20045;-85
2022/03/21 01:05:24;;;;;;;16.38;9.75;;;;;;;-3.18;55.03;94689.06;5010335;28;20168;-85
2022/03/21 01:07:51;;;;;;;17.70;10.38;;;;;;;-3.31;55.30;94693.16;5010207;28;20049;-85
2022/03/21 01:10:22;;;;;;;19.50;9.45;;;;;;;-3.37;55.75;94681.78;5010100;28;20482;-84
2022/03/21 01:12:51;;;;;;;17.80;9.25;;;;;;;-3.37;55.77;94676.75;5010440;28;20049;-85
2022/03/21 01:15:20;;;;;;;14.70;9.00;;;;;;;-3.49;56.67;94669.00;5010514;28;20050;-84
2022/03/21 01:17:47;;;;;;;16.50;9.57;;;;;;;-3.39;56.54;94679.34;5010236;28;20038;-84
2022/03/21 01:20:15;;;;;;;17.33;9.50;;;;;;;-3.27;56.16;94666.97;5010126;28;20049;-84
2022/03/21 01:22:43;;;;;;;16.08;10.43;;;;;;;-3.28;56.11;94665.34;5010157;28;20057;-85
2022/03/21 01:25:11;;;;;;;16.55;9.82;;;;;;;-3.42;55.65;94666.94;5010099;28;20109;-85
2022/03/21 01:27:40;;;;;;;16.85;9.75;;;;;;;-3.49;56.81;94663.16;5010203;28;20069;-85
2022/03/21 01:30:09;;;;;;;15.52;9.23;;;;;;;-3.43;56.93;94639.41;5010598;28;20041;-85
2022/03/21 01:32:37;;;;;;;15.57;9.93;;;;;;;-3.54;56.58;94592.28;5009951;28;20046;-84
2022/03/21 01:35:05;;;;;;;16.77;8.93;;;;;;;-3.12;55.90;94651.00;5009898;28;20054;-84
2022/03/21 01:37:32;;;;;;;14.05;9.38;;;;;;;-3.30;55.91;94622.72;5009951;28;20053;-84
2022/03/21 01:39:59;;;;;;;14.45;9.00;;;;;;;-3.31;56.37;94643.72;5007358;28;20054;-84
2022/03/21 01:42:26;;;;;;;16.17;9.73;;;;;;;-3.36;55.91;94628.94;5009957;28;20049;-84
2022/03/21 01:44:55;;;;;;;20.10;10.20;;;;;;;-3.41;56.68;94640.13;5009993;28;20469;-84
2022/03/21 01:47:22;;;;;;;18.35;9.90;;;;;;;-3.36;56.25;94636.47;5009873;28;20129;-84
2022/03/21 01:49:49;;;;;;;16.52;9.48;;;;;;;-3.38;56.29;94627.41;5013467;28;20060;-84
2022/03/21 01:52:16;;;;;;;20.23;10.13;;;;;;;-3.40;56.33;94630.00;5014382;28;20064;-84
2022/03/21 01:57:26;;;;;;;23.50;11.52;;;;;;;-3.26;56.44;94631.69;5002434;28;20090;-85
2022/03/21 01:59:57;;;;;;;20.35;12.98;;;;;;;-3.47;56.83;94621.19;5012968;28;20057;-85
2022/03/21 02:02:23;;;;;;;19.70;11.50;;;;;;;-3.31;57.03;94625.31;5013837;28;20046;-85
2022/03/21 02:04:50;;;;;;;16.08;10.57;;;;;;;-3.25;56.29;94623.25;5013314;28;20050;-85
2022/03/21 02:07:18;;;;;;;19.48;11.20;;;;;;;-3.25;56.15;94628.28;5013335;28;20037;-85
2022/03/21 02:09:46;;;;;;;20.10;11.45;;;;;;;-3.41;57.15;94620.03;5013253;28;20041;-85
2022/03/21 02:12:13;;;;;;;16.67;9.90;;;;;;;-3.40;57.17;94637.53;5013162;28;20048;-85
2022/03/21 02:14:41;;;;;;;15.90;10.10;;;;;;;-3.55;57.81;94631.69;5010566;28;20100;-85
2022/03/21 02:17:10;;;;;;;16.13;9.85;;;;;;;-3.55;58.19;94631.69;5013092;28;20568;-85
2022/03/21 02:19:39;;;;;;;17.73;11.23;;;;;;;-3.54;58.13;94629.97;5013035;28;20056;-85
2022/03/21 02:22:26;;;;;;;18.65;10.07;;;;;;;-3.57;57.47;94625.94;5013168;28;20045;-85
2022/03/21 02:25:02;;;;;;;17.05;9.95;;;;;;;-3.59;58.22;94615.16;5012187;28;20509;-85
2022/03/21 02:27:32;;;;;;;17.63;10.80;;;;;;;-3.47;57.69;94630.44;5013199;28;20116;-85
2022/03/21 02:30:01;;;;;;;17.55;10.98;;;;;;;-3.41;57.76;94627.56;5012857;28;20494;-85
2022/03/21 02:32:28;;;;;;;18.00;11.27;;;;;;;-3.23;57.42;94630.72;5012906;28;20049;-85
2022/03/21 02:34:56;;;;;;;18.98;11.75;;;;;;;-3.27;57.00;94617.53;5012881;28;20494;-84
2022/03/21 02:37:26;;;;;;;17.77;9.93;;;;;;;-3.17;56.33;94622.81;5012834;28;20058;-85
2022/03/21 02:39:54;;;;;;;98.05;41.17;;;;;;;-3.14;56.57;94614.28;5012825;28;20050;-85
2022/03/21 02:42:21;;;;;;;40.22;19.83;;;;;;;-3.07;56.06;94627.31;5010500;28;20081;-84
2022/03/21 02:44:49;;;;;;;19.60;11.30;;;;;;;-3.07;55.77;94629.81;5012541;28;20521;-85
2022/03/21 02:47:16;;;;;;;20.55;11.25;;;;;;;-3.05;56.08;94640.59;5012409;28;20042;-85
2022/03/21 02:49:43;;;;;;;16.83;11.07;;;;;;;-3.12;56.58;94628.38;5012661;28;20037;-84
2022/03/21 02:52:11;;;;;;;16.35;11.38;;;;;;;-3.19;56.16;94623.81;5012547;28;20049;-85
2022/03/21 02:54:38;;;;;;;18.70;11.85;;;;;;;-3.30;56.73;94605.13;5009683;28;20465;-85
2022/03/21 02:57:05;;;;;;;21.55;12.27;;;;;;;-3.45;57.15;94604.31;5012574;28;20080;-84
2022/03/21 02:59:32;;;;;;;22.52;11.60;;;;;;;-3.43;57.46;94605.03;5011860;28;20096;-84
2022/03/21 03:02:00;;;;;;;22.90;11.82;;;;;;;-3.26;57.72;94620.81;5012064;28;20104;-85
2022/03/21 03:04:28;;;;;;;30.60;13.52;;;;;;;-3.35;57.69;94617.16;5012332;28;20045;-84
2022/03/21 03:06:55;;;;;;;35.67;12.93;;;;;;;-3.52;58.55;94623.16;5011990;28;20371;-85
2022/03/21 03:09:22;;;;;;;25.25;11.80;;;;;;;-3.72;59.40;94635.16;5012485;28;20405;-85
2022/03/21 03:11:49;;;;;;;35.78;13.07;;;;;;;-3.55;59.37;94625.84;5012116;28;20490;-82
2022/03/21 03:14:16;;;;;;;26.75;11.57;;;;;;;-3.41;58.09;94635.09;5011920;28;20548;-85
2022/03/21 03:16:43;;;;;;;20.67;10.95;;;;;;;-3.47;58.06;94626.22;5012010;28;20050;-86
2022/03/21 03:19:11;;;;;;;20.63;11.23;;;;;;;-3.59;58.43;94640.28;5012479;28;20042;-85
2022/03/21 03:21:40;;;;;;;27.42;11.88;;;;;;;-3.62;58.72;94640.44;5011635;28;20054;-84
2022/03/21 03:24:10;;;;;;;23.77;13.00;;;;;;;-3.56;58.16;94611.69;5012026;28;20140;-85
2022/03/21 03:26:37;;;;;;;28.40;12.60;;;;;;;-3.61;58.85;94624.50;5011952;28;20049;-84
2022/03/21 03:29:04;;;;;;;29.25;11.98;;;;;;;-3.51;58.16;94623.06;5011869;28;20045;-84
2022/03/21 03:31:31;;;;;;;37.53;15.00;;;;;;;-3.46;58.32;94620.31;5011688;28;20053;-85
2022/03/21 03:33:59;;;;;;;26.88;11.60;;;;;;;-3.56;58.70;94616.69;5011422;28;20077;-84
2022/03/21 03:36:27;;;;;;;23.00;11.43;;;;;;;-3.59;59.11;94624.41;5011787;28;20046;-85
2022/03/21 03:38:54;;;;;;;25.20;11.65;;;;;;;-3.99;58.51;94560.50;5011781;28;20050;-85
2022/03/21 03:41:21;;;;;;;21.45;11.57;;;;;;;-3.78;58.23;94578.56;5011645;28;20813;-84
2022/03/21 03:43:49;;;;;;;26.38;13.80;;;;;;;-3.37;58.04;94624.78;5011693;28;20050;-84
2022/03/21 03:46:17;;;;;;;24.95;12.55;;;;;;;-3.34;57.37;94616.25;5011279;28;20132;-85
2022/03/21 03:48:44;;;;;;;21.92;12.13;;;;;;;-3.32;56.76;94617.00;5011733;28;20125;-84
2022/03/21 03:51:11;;;;;;;24.58;12.93;;;;;;;-3.38;57.23;94600.56;5011260;28;20471;-85
2022/03/21 03:53:39;;;;;;;20.48;12.63;;;;;;;-3.39;56.95;94616.53;5011331;28;20069;-85
2022/03/21 03:56:07;;;;;;;22.60;12.68;;;;;;;-3.28;56.74;94615.09;5011252;28;20100;-85
2022/03/21 03:58:34;;;;;;;22.98;13.60;;;;;;;-3.62;56.88;94563.41;5011199;28;20564;-84
2022/03/21 04:01:03;;;;;;;24.02;14.05;;;;;;;-3.18;56.95;94612.84;5010647;28;20068;-85
2022/03/21 04:03:45;;;;;;;22.65;13.05;;;;;;;-3.19;55.67;94617.09;5011222;28;20046;-85
2022/03/21 04:06:13;;;;;;;32.88;14.02;;;;;;;-3.22;56.64;94615.56;5010370;28;20045;-84
2022/03/21 04:08:41;;;;;;;28.38;13.80;;;;;;;-3.26;56.65;94614.13;5010889;28;20046;-84
2022/03/21 04:11:08;;;;;;;31.15;14.23;;;;;;;-3.38;56.81;94618.13;5010729;28;20065;-85
2022/03/21 04:13:35;;;;;;;32.38;14.18;;;;;;;-3.57;57.59;94602.53;5011119;28;20049;-84
2022/03/21 04:16:02;;;;;;;29.30;13.05;;;;;;;-3.48;57.83;94604.50;5011132;28;20050;-84
2022/03/21 04:18:29;;;;;;;27.23;13.60;;;;;;;-3.32;57.98;94614.47;5011100;28;20092;-85
2022/03/21 04:20:55;;;;;;;25.50;13.65;;;;;;;-3.32;57.76;94604.44;5010734;28;20103;-86
2022/03/21 04:23:22;;;;;;;35.92;16.25;;;;;;;-3.27;57.20;94610.00;5011229;28;20058;-84
2022/03/21 04:25:50;;;;;;;38.03;16.23;;;;;;;-3.22;56.43;94615.56;5011224;28;20093;-86
2022/03/21 04:28:18;;;;;;;36.83;16.05;;;;;;;-3.30;57.43;94582.50;5011633;28;20053;-84
2022/03/21 04:30:47;;;;;;;34.28;15.55;;;;;;;-3.01;56.85;94611.84;5011557;28;20376;-85
2022/03/21 04:33:14;;;;;;;32.35;15.18;;;;;;;-3.25;56.69;94574.69;5011243;28;20105;-84
2022/03/21 04:35:41;;;;;;;40.20;14.85;;;;;;;-3.01;56.07;94604.31;5011238;28;20049;-86
2022/03/21 04:38:14;;;;;;;33.72;16.90;;;;;;;-2.99;56.72;94605.84;5011181;28;20042;-85
2022/03/21 04:40:42;;;;;;;72.07;31.63;;;;;;;-3.01;55.85;94614.38;5011003;28;20085;-86
2022/03/21 04:43:10;;;;;;;45.15;21.02;;;;;;;-3.09;56.29;94614.81;5011093;28;20057;-85
2022/03/21 04:45:37;;;;;;;38.08;18.30;;;;;;;-3.17;55.36;94614.44;5011115;28;20490;-85
2022/03/21 04:48:05;;;;;;;28.13;14.65;;;;;;;-3.40;56.96;94599.84;5010984;28;20053;-84
2022/03/21 04:50:32;;;;;;;29.35;13.93;;;;;;;-3.39;56.81;94606.47;5011643;28;20049;-85
2022/03/21 04:52:59;;;;;;;35.90;17.60;;;;;;;-3.49;57.44;94607.91;5011118;28;20057;-85
2022/03/21 04:55:25;;;;;;;26.95;13.15;;;;;;;-3.39;56.74;94609.00;5010958;28;20410;-85
2022/03/21 04:57:52;;;;;;;25.52;13.80;;;;;;;-3.62;58.51;94613.66;5010904;28;20049;-85
2022/03/21 05:00:21;;;;;;;33.22;13.35;;;;;;;-3.56;58.87;94612.47;5010821;28;20046;-85
2022/03/21 05:02:47;;;;;;;33.33;14.82;;;;;;;-3.46;58.12;94612.75;5011099;28;20054;-85
2022/03/21 05:05:14;;;;;;;36.13;15.27;;;;;;;-3.50;58.50;94614.66;5010895;28;20108;-85
2022/03/21 05:07:43;;;;;;;29.67;14.68;;;;;;;-3.54;58.51;94604.84;5010743;28;20486;-85
2022/03/21 05:10:10;;;;;;;36.45;15.23;;;;;;;-3.54;57.84;94603.16;5011074;28;20057;-85
2022/03/21 05:12:37;;;;;;;35.20;14.27;;;;;;;-3.45;57.84;94619.41;5010923;28;20486;-83
2022/03/21 05:15:05;;;;;;;38.33;16.60;;;;;;;-3.33;59.06;94625.44;5010986;28;20054;-84
2022/03/21 05:17:36;;;;;;;30.58;15.32;;;;;;;-3.24;58.76;94609.78;5010921;28;20060;-85
2022/03/21 05:20:08;;;;;;;40.60;17.75;;;;;;;-3.17;57.77;94622.00;5010542;28;20061;-86
2022/03/21 05:22:35;;;;;;;38.53;16.60;;;;;;;-3.02;56.24;94631.16;5012920;28;20046;-86
2022/03/21 05:36:00;;;;;;;40.78;16.33;;;;;;;-2.53;56.02;94621.53;5014556;28;20056;-87
2022/03/21 05:38:28;;;;;;;26.83;12.95;;;;;;;-2.38;53.76;94624.81;5012864;28;21200;-87
2022/03/21 05:40:59;;;;;;;26.75;14.05;;;;;;;-2.26;54.39;94625.78;5014221;28;20057;-87
2022/03/21 05:43:27;;;;;;;23.63;13.57;;;;;;;-1.96;52.10;94626.44;5014656;28;20507;-88
2022/03/21 05:45:54;;;;;;;19.95;13.07;;;;;;;-1.71;50.47;94629.91;5014410;28;20413;-87
2022/03/21 05:51:07;;;;;;;16.05;11.20;;;;;;;-1.31;50.29;94626.53;5014129;28;20060;-88
2022/03/21 05:53:34;;;;;;;16.80;9.60;;;;;;;-1.14;47.85;94641.34;5013950;28;20464;-85
2022/03/21 05:56:03;;;;;;;19.15;11.00;;;;;;;-1.02;48.45;94636.38;5013983;28;20042;-91
2022/03/21 05:58:48;;;;;;;16.40;9.98;;;;;;;-0.96;47.98;94628.41;5013919;28;20049;-89
2022/03/21 06:01:24;;;;;;;20.58;10.75;;;;;;;-0.86;47.03;94624.34;5014087;28;20054;-90
2022/03/21 06:04:16;;;;;;;;;;;;;;;-0.84;47.29;94626.75;5014218;28;20050;-89
2022/03/21 06:06:43;;;;;;;18.65;11.23;;;;;;;-0.68;47.55;94616.44;5013874;28;19921;-90
2022/03/21 06:09:15;;;;;;;15.90;9.77;;;;;;;-0.77;46.56;94591.81;5013794;28;20100;-90
2022/03/21 06:11:48;;;;;;;16.73;9.63;;;;;;;-0.66;45.78;94604.50;5013888;28;20046;-91
2022/03/21 06:14:20;;;;;;;16.30;9.73;;;;;;;-0.39;46.13;94623.69;5013560;28;20131;-89
2022/03/21 06:16:48;;;;;;;20.08;11.10;;;;;;;-0.40;45.34;94609.47;5013768;28;20137;-88
2022/03/21 06:19:18;;;;;;;16.25;9.65;;;;;;;-0.17;45.59;94623.00;5013547;28;20050;-90
2022/03/21 06:21:46;;;;;;;14.60;8.95;;;;;;;-0.22;45.36;94620.00;5013504;28;20136;-90
2022/03/21 06:24:13;;;;;;;18.15;9.20;;;;;;;0.02;45.86;94623.41;5013584;28;20413;-90
2022/03/21 06:26:46;;;;;;;15.82;10.55;;;;;;;-0.04;45.88;94627.19;5013358;28;20426;-91
2022/03/21 06:29:24;;;;;;;13.63;9.07;;;;;;;-0.03;45.80;94613.63;5013730;28;20111;-90
2022/03/21 06:31:54;;;;;;;18.17;10.00;;;;;;;-0.03;45.30;94633.84;5013293;28;20140;-92
2022/03/21 06:34:22;;;;;;;16.17;9.07;;;;;;;-0.25;45.60;94572.22;5012617;28;20073;-86
2022/03/21 06:36:49;;;;;;;16.27;9.15;;;;;;;-0.12;45.26;94616.81;5013343;28;20046;-88
2022/03/21 06:39:16;;;;;;;14.68;9.57;;;;;;;-0.16;45.37;94606.94;5013314;28;20140;-84
2022/03/21 06:41:44;;;;;;;18.23;10.27;;;;;;;0.15;45.76;94598.88;5013453;28;20403;-89
2022/03/21 06:44:10;;;;;;;17.50;9.98;;;;;;;0.08;45.10;94590.13;5013399;28;20123;-91
2022/03/21 06:46:37;;;;;;;16.65;9.23;;;;;;;0.14;45.13;94599.81;5013585;28;20046;-87
2022/03/21 06:49:07;;;;;;;17.65;9.45;;;;;;;0.04;44.48;94540.75;5013020;28;20057;-90
2022/03/21 06:51:41;;;;;;;19.92;10.45;;;;;;;0.01;44.99;94531.66;5012942;28;20502;-91
2022/03/21 06:54:10;;;;;;;22.27;11.85;;;;;;;0.26;44.51;94570.28;5013127;28;20096;-85
2022/03/21 06:56:36;;;;;;;31.35;19.77;;;;;;;0.13;44.84;94596.47;5013051;28;20405;-79
2022/03/21 06:59:15;;;;;;;;;;;;;;;;;;;;;
2022/03/21 07:01:42;;;;;;;17.70;10.27;;;;;;;0.05;45.48;94580.25;5012940;28;20414;-88
2022/03/21 07:04:17;;;;;;;18.10;10.05;;;;;;;0.17;45.51;94591.16;5012987;28;20057;-86
2022/03/21 07:06:50;;;;;;;17.20;11.00;;;;;;;0.03;45.12;94544.16;5013090;28;20050;-89
2022/03/21 07:09:17;;;;;;;18.05;10.43;;;;;;;0.17;45.23;94602.09;5013081;28;20073;-81
2022/03/21 07:11:44;;;;;;;13.85;9.13;;;;;;;0.15;44.39;94586.25;5012961;28;20186;-84
2022/03/21 07:14:11;;;;;;;16.48;9.77;;;;;;;0.26;44.66;94588.78;5012808;28;20101;-91
2022/03/21 07:16:56;;;;;;;18.25;8.63;;;;;;;0.24;44.93;94580.50;5012645;28;20050;-86
2022/03/21 07:19:29;;;;;;;15.50;9.23;;;;;;;0.60;44.64;94599.88;5013067;28;20057;-91
2022/03/21 07:22:00;;;;;;;13.65;8.93;;;;;;;0.63;44.67;94599.63;5012765;28;20060;-83
2022/03/21 07:24:26;;;;;;;16.42;10.52;;;;;;;0.62;44.83;94603.09;5012590;28;20052;-83
2022/03/21 07:26:57;;;;;;;22.25;14.40;;;;;;;0.69;45.19;94600.91;5012578;28;20065;-87
2022/03/21 07:29:26;;;;;;;17.20;10.07;;;;;;;0.79;43.91;94577.34;5012538;28;20073;-90
2022/03/21 07:31:53;;;;;;;18.65;9.50;;;;;;;0.92;44.19;94605.06;5012495;28;20049;-86
2022/03/21 07:34:22;;;;;;;16.65;10.02;;;;;;;0.87;44.40;94616.41;5012429;28;20153;-86
2022/03/21 07:36:50;;;;;;;14.45;10.07;;;;;;;1.06;43.99;94608.25;5012223;28;20490;-91
2022/03/21 07:39:29;;;;;;;;;;;;;;;;;;;;;
2022/03/21 07:42:00;;;;;;;14.98;9.40;;;;;;;1.09;43.37;94640.94;5006679;28;20058;-84
2022/03/21 07:47:34;;;;;;;15.88;9.40;;;;;;;1.13;44.22;94614.47;5012112;28;20112;-90
2022/03/21 07:50:03;;;;;;;18.27;9.57;;;;;;;1.05;44.35;94574.56;5011796;28;20499;-86
2022/03/21 07:52:39;;;;;;;;;;;;;;;;;;;;;
2022/03/21 07:55:19;;;;;;;20.60;11.85;;;;;;;1.18;43.88;94617.47;5008906;28;20054;-91
2022/03/21 07:57:46;;;;;;;16.08;9.73;;;;;;;1.27;43.35;94622.75;5011909;28;20050;-88
2022/03/21 08:00:15;;;;;;;16.20;9.90;;;;;;;1.45;43.61;94623.06;5011690;28;20057;-88
2022/03/21 08:02:49;;;;;;;17.75;10.15;;;;;;;1.35;43.52;94622.97;5011222;28;20053;-85
2022/03/21 08:05:34;;;;;;;;;;;;;;;;;;;;;
2022/03/21 08:08:03;;;;;;;18.98;10.15;;;;;;;1.59;43.59;94622.00;5011490;28;20058;-87
2022/03/21 08:10:34;;;;;;;14.25;9.90;;;;;;;1.58;43.54;94616.13;5011831;28;20050;-87
2022/03/21 08:13:16;;;;;;;18.02;10.82;;;;;;;1.90;43.93;94611.97;5011553;28;20070;-89
2022/03/21 08:15:44;;;;;;;17.70;10.35;;;;;;;1.83;42.37;94614.22;5011934;28;20433;-89
2022/03/21 08:18:11;;;;;;;15.63;8.80;;;;;;;1.40;42.36;94539.88;5011566;28;20486;-90
2022/03/21 08:20:39;;;;;;;17.00;9.38;;;;;;;1.84;42.40;94599.78;5011755;28;20427;-90
2022/03/21 08:23:08;;;;;;;17.48;10.70;;;;;;;2.11;42.73;94619.63;5011341;28;20058;-93
2022/03/21 08:25:48;;;;;;;18.08;10.32;;;;;;;1.75;42.81;94598.00;5011721;28;20414;-84
2022/03/21 08:28:25;;;;;;;;;;;;;;;;;;;;;
2022/03/21 08:30:55;;;;;;;18.15;10.95;;;;;;;2.27;43.78;94615.88;5011532;28;20054;-89
2022/03/21 08:33:32;;;;;;;;;;;;;;;;;;;;;
2022/03/21 08:36:00;;;;;;;17.33;11.13;;;;;;;2.50;42.82;94615.75;5011534;28;20058;-89
2022/03/21 08:38:33;;;;;;;22.50;12.52;;;;;;;2.46;42.43;94625.31;5011411;28;20054;-92
2022/03/21 08:41:01;;;;;;;18.63;10.90;;;;;;;2.37;42.70;94616.72;5011127;28;20054;-88
2022/03/21 08:43:29;;;;;;;16.75;10.05;;;;;;;2.36;42.24;94619.41;5011329;28;20090;-90
2022/03/21 08:45:56;;;;;;;16.60;10.73;;;;;;;2.55;43.00;94603.50;5011531;28;20124;-88
2022/03/21 08:51:18;;;;;;;;;;;;;;;;;;;;;
2022/03/21 08:53:48;;;;;;;17.83;10.05;;;;;;;3.08;41.46;94614.41;5004266;28;20046;-90
2022/03/21 08:56:16;;;;;;;18.40;10.23;;;;;;;2.76;41.71;94616.16;5010633;28;20065;-89
2022/03/21 08:58:43;;;;;;;15.23;9.93;;;;;;;2.64;42.12;94595.09;5010765;28;20053;-91
2022/03/21 09:01:10;;;;;;;15.90;9.60;;;;;;;2.36;42.44;94582.16;5011075;28;20061;-91
2022/03/21 09:03:37;;;;;;;15.88;9.77;;;;;;;2.22;42.92;94617.97;5010857;28;20046;-87
2022/03/21 09:06:05;;;;;;;19.88;10.98;;;;;;;2.47;42.96;94615.97;5011047;28;20116;-91
2022/03/21 09:08:37;;;;;;;18.17;10.95;;;;;;;2.41;42.64;94581.78;5010867;28;20070;-87
2022/03/21 09:11:06;;;;;;;19.92;11.77;;;;;;;2.66;42.72;94600.88;5010158;28;20062;-86
2022/03/21 09:13:36;;;;;;;16.75;10.43;;;;;;;2.56;41.58;94599.22;5010816;28;20045;-88
2022/03/21 09:16:04;;;;;;;16.15;10.52;;;;;;;2.48;42.24;94574.47;5010893;28;20104;-93
2022/03/21 09:18:31;;;;;;;19.35;11.75;;;;;;;2.65;42.90;94593.38;5010778;28;20054;-88
2022/03/21 09:20:58;;;;;;;17.00;10.88;;;;;;;2.63;42.44;94600.31;5010751;28;20088;-84
2022/03/21 09:23:26;;;;;;;16.20;10.02;;;;;;;2.82;42.58;94586.91;5010730;28;20112;-84
2022/03/21 09:25:53;;;;;;;17.95;10.63;;;;;;;3.04;41.81;94601.16;5010635;28;20449;-88
2022/03/21 09:28:25;;;;;;;14.65;9.48;;;;;;;3.12;41.76;94581.94;5011118;28;20057;-94
2022/03/21 09:30:53;;;;;;;17.90;9.68;;;;;;;3.13;40.67;94589.44;5010802;28;20050;-84
2022/03/21 09:33:23;;;;;;;14.07;9.07;;;;;;;3.44;41.56;94583.47;5010604;28;20054;-91
2022/03/21 09:35:52;;;;;;;15.15;9.75;;;;;;;3.64;40.10;94584.31;5010673;28;20046;-92
2022/03/21 09:38:19;;;;;;;16.48;9.73;;;;;;;3.81;39.75;94587.13;5010754;28;20054;-86
2022/03/21 09:40:47;;;;;;;17.15;10.10;;;;;;;4.00;40.70;94571.88;5010902;28;20499;-88
2022/03/21 09:43:14;;;;;;;17.00;10.05;;;;;;;3.82;40.51;94570.94;5010615;28;20410;-88
2022/03/21 09:45:47;;;;;;;15.52;9.77;;;;;;;3.87;39.53;94584.88;5010719;28;20065;-86
2022/03/21 09:48:19;;;;;;;15.70;10.02;;;;;;;3.20;39.59;94569.41;5010625;28;20046;-89
2022/03/21 09:50:51;;;;;;;18.88;12.05;;;;;;;3.66;40.08;94581.63;5011091;28;20127;-86
2022/03/21 09:53:37;;;;;;;29.17;16.42;;;;;;;3.66;39.88;94567.19;5010738;28;20053;-86
2022/03/21 09:56:08;;;;;;;20.00;11.80;;;;;;;3.96;40.16;94579.91;5011085;28;20058;-90
2022/03/21 09:58:35;;;;;;;13.93;8.90;;;;;;;3.38;39.84;94576.38;5010833;28;20050;-85
2022/03/21 10:01:02;;;;;;;13.68;9.23;;;;;;;3.45;39.38;94585.91;5010605;28;20054;-82
2022/03/21 10:03:33;;;;;;;17.20;8.98;;;;;;;3.54;38.63;94575.88;5008835;28;20103;-83
2022/03/21 10:06:02;;;;;;;15.30;8.77;;;;;;;3.71;38.75;94559.97;5010286;28;20502;-86
2022/03/21 10:08:34;;;;;;;22.23;12.98;;;;;;;2.82;39.29;94449.09;5010492;28;20054;-90
2022/03/21 10:11:02;;;;;;;17.17;9.95;;;;;;;3.88;38.72;94570.41;4823056;28;5001210;-92
2022/03/21 10:13:34;;;;;;;15.68;9.75;;;;;;;4.06;37.88;94523.94;5013731;28;20053;-90
2022/03/21 10:16:12;;;;;;;27.65;14.93;;;;;;;4.40;38.70;94561.66;5013493;28;20111;-90
2022/03/21 10:19:05;;;;;;;29.65;14.02;;;;;;;3.90;39.11;94567.72;5013777;28;20046;-87
2022/03/21 10:21:31;;;;;;;23.60;11.90;;;;;;;3.19;40.50;94560.16;5013589;28;20136;-85
2022/03/21 10:24:02;;;;;;;31.75;14.75;;;;;;;3.53;40.18;94576.81;5013609;28;20494;-86
2022/03/21 10:26:31;;;;;;;22.15;12.15;;;;;;;3.21;39.33;94564.19;5013506;28;20085;-81
2022/03/21 10:29:09;;;;;;;27.73;15.57;;;;;;;3.66;39.35;94569.72;5013788;28;20045;-94
2022/03/21 10:31:43;;;;;;;19.27;9.73;;;;;;;3.66;38.91;94569.72;5013587;28;20056;-85
2022/03/21 10:34:15;;;;;;;18.88;9.77;;;;;;;4.00;39.33;94582.06;5013269;28;20045;-89
2022/03/21 10:37:05;;;;;;;16.88;10.05;;;;;;;4.35;38.71;94579.06;5013287;28;20065;-89
2022/03/21 10:39:38;;;;;;;14.98;10.05;;;;;;;4.14;38.73;94582.56;5013576;28;20104;-93
2022/03/21 10:42:12;;;;;;;11.82;8.25;;;;;;;4.00;37.81;94559.16;5013436;28;20042;-93
2022/03/21 10:44:54;;;;;;;14.57;9.85;;;;;;;3.86;38.57;94527.34;5013345;28;20490;-92
2022/03/21 10:47:23;;;;;;;16.42;9.60;;;;;;;4.36;38.78;94567.94;5013133;28;20533;-90
2022/03/21 10:50:04;;;;;;;20.63;9.82;;;;;;;4.19;38.57;94575.34;5013473;28;20045;-92
2022/03/21 10:52:43;;;;;;;;;;;;;;;;;;;;;
2022/03/21 10:55:21;;;;;;;15.88;10.85;;;;;;;4.10;39.90;94576.97;5006214;28;20507;-84
2022/03/21 10:57:56;;;;;;;15.27;9.45;;;;;;;3.87;38.76;94566.25;5013412;28;20096;-89
2022/03/21 11:00:26;;;;;;;14.95;9.15;;;;;;;4.04;38.94;94548.72;5013241;28;20060;-87
2022/03/21 11:02:58;;;;;;;13.30;8.70;;;;;;;4.34;38.50;94550.28;5013170;28;20057;-84
2022/03/21 11:05:31;;;;;;;16.48;10.85;;;;;;;4.44;38.54;94522.25;5012803;28;20049;-89
2022/03/21 11:07:58;;;;;;;15.30;9.88;;;;;;;4.91;39.00;94533.34;5012963;28;20050;-90
2022/03/21 11:10:26;;;;;;;15.90;9.98;;;;;;;4.12;38.65;94531.06;5012840;28;20053;-86
2022/03/21 11:12:55;;;;;;;32.65;20.08;;;;;;;4.23;39.08;94527.53;5012169;28;20498;-91
2022/03/21 11:15:24;;;;;;;12.73;8.88;;;;;;;4.23;39.19;94541.06;5012769;28;20112;-93
2022/03/21 11:17:55;;;;;;;15.60;9.13;;;;;;;3.93;38.48;94552.22;5012764;28;20054;-86
2022/03/21 11:20:24;;;;;;;21.13;13.23;;;;;;;4.28;38.36;94516.03;5012268;28;20056;-92
2022/03/21 11:22:55;;;;;;;15.45;9.45;;;;;;;4.28;38.20;94507.59;5009774;28;20458;-88
2022/03/21 11:25:23;;;;;;;14.75;10.65;;;;;;;4.51;38.17;94528.41;5013423;28;20116;-92
2022/03/21 11:28:21;;;;;;;15.20;9.48;;;;;;;4.38;38.74;94522.81;5012526;28;20054;-91
2022/03/21 11:31:09;;;;;;;24.00;14.10;;;;;;;4.28;38.43;94525.38;5005524;28;20569;-91
2022/03/21 11:33:43;;;;;;;20.73;12.32;;;;;;;4.22;38.23;94523.41;5014003;28;20425;-87
2022/03/21 11:36:13;;;;;;;18.42;10.80;;;;;;;4.35;38.91;94536.59;5012667;28;20045;-91
2022/03/21 11:39:00;;;;;;;17.05;10.95;;;;;;;4.53;38.24;94518.06;5011770;28;20102;-89
2022/03/21 11:41:31;;;;;;;17.75;12.00;;;;;;;4.51;38.23;94507.22;5002850;28;20129;-89
2022/03/21 11:44:14;;;;;;;16.45;9.40;;;;;;;4.61;37.64;94507.19;5011324;28;20454;-82
2022/03/21 11:46:47;;;;;;;15.70;9.65;;;;;;;4.32;37.97;94518.28;5011246;28;20057;-87
2022/03/21 11:49:44;;;;;;;16.70;11.95;;;;;;;4.26;38.21;94501.84;5002147;28;20049;-94
2022/03/21 11:52:14;;;;;;;12.70;9.10;;;;;;;4.50;38.18;94501.34;5009890;28;20570;-92
2022/03/21 11:54:45;;;;;;;14.13;8.93;;;;;;;4.70;37.83;94495.38;5012305;28;20045;-88
2022/03/21 11:57:31;;;;;;;18.98;9.85;;;;;;;4.62;38.02;94468.06;5009125;28;20054;-93
2022/03/21 12:00:05;;;;;;;13.63;8.57;;;;;;;4.43;37.53;94487.56;5012183;28;20045;-90
2022/03/21 12:02:59;;;;;;;12.75;8.25;;;;;;;4.86;37.53;94477.72;5012570;28;20054;-92
2022/03/21 12:05:52;;;;;;;14.65;8.65;;;;;;;5.15;37.13;94486.97;5011999;28;20064;-88
2022/03/21 12:08:52;;;;;;;13.05;8.18;;;;;;;5.13;36.10;94478.66;5012013;28;20490;-90
2022/03/21 12:12:06;;;;;;;12.98;7.97;;;;;;;5.18;35.92;94476.47;5012500;28;20065;-94